Time;durP1;ratioP1;P1;durP2;ratioP2;P2;SDS_P1;SDS_P2;PMS_P1;PMS_P2;Temp;Humidity;BMP_temperature;BMP_pressure;BME280_temperature;BME280_humidity;BME280_pressure;Samples;Min_cycle;Max_cycle;Signal;HPM_P1;HPM_P2
2022/02/06 00:02:34;;;;;;;0.10;0.10;;;;;;;;;;5076508;28;20028;-77
2022/02/06 00:05:00;;;;;;;0.30;0.30;;;;;;;;;;5068065;28;20389;-78
2022/02/06 00:07:26;;;;;;;0.43;0.25;;;;;;;;;;5082560;28;20029;-77
2022/02/06 00:09:53;;;;;;;0.00;0.00;;;;;;;;;;5082357;28;20089;-77
2022/02/06 00:12:19;;;;;;;0.20;0.20;;;;;;;;;;5064271;28;20540;-77
2022/02/06 00:14:45;;;;;;;0.10;0.10;;;;;;;;;;5078605;28;20104;-77
2022/02/06 00:17:11;;;;;;;0.10;0.10;;;;;;;;;;5077489;28;20027;-77
2022/02/06 00:19:41;;;;;;;0.10;0.10;;;;;;;;;;5077173;28;20040;-77
2022/02/06 00:22:09;;;;;;;0.10;0.10;;;;;;;;;;5083114;28;20359;-77
2022/02/06 00:24:45;;;;;;;2.08;1.48;;;;;;;;;;5065056;28;20039;-77
2022/02/06 00:27:24;;;;;;;0.03;0.03;;;;;;;;;;5079925;28;20491;-77
2022/02/06 00:29:59;;;;;;;0.20;0.20;;;;;;;;;;5079161;28;20066;-76
2022/02/06 00:32:36;;;;;;;0.10;0.10;;;;;;;;;;5069740;28;20024;-79
2022/02/06 00:43:12;;;;;;;0.40;0.40;;;;;;;;;;5065917;28;20043;-78
2022/02/06 00:45:38;;;;;;;2.08;0.60;;;;;;;;;;5081419;28;20036;-78
2022/02/06 00:48:05;;;;;;;0.00;0.00;;;;;;;;;;5079173;28;20027;-78
2022/02/06 00:50:33;;;;;;;0.20;0.20;;;;;;;;;;5069362;28;20450;-78
2022/02/06 00:53:06;;;;;;;0.85;0.85;;;;;;;;;;5071380;28;20043;-78
2022/02/06 00:55:32;;;;;;;0.10;0.10;;;;;;;;;;5077141;28;20024;-80
2022/02/06 00:57:58;;;;;;;0.00;0.00;;;;;;;;;;5079804;28;20024;-80
2022/02/06 01:00:24;;;;;;;0.20;0.20;;;;;;;;;;5083338;28;20340;-80
2022/02/06 01:02:51;;;;;;;0.65;0.65;;;;;;;;;;5058721;28;20441;-81
2022/02/06 01:05:17;;;;;;;0.20;0.20;;;;;;;;;;5073106;28;20767;-81
2022/02/06 01:07:43;;;;;;;0.10;0.10;;;;;;;;;;5058253;28;20033;-80
2022/02/06 01:10:09;;;;;;;0.20;0.13;;;;;;;;;;5062793;28;20145;-81
2022/02/06 01:12:38;;;;;;;0.10;0.10;;;;;;;;;;5077655;28;20096;-81
2022/02/06 01:15:13;;;;;;;0.22;0.22;;;;;;;;;;5072167;28;20024;-79
2022/02/06 01:17:45;;;;;;;0.00;0.00;;;;;;;;;;5073298;28;20032;-80
2022/02/06 01:20:23;;;;;;;0.60;0.60;;;;;;;;;;5084258;28;20015;-80
2022/02/06 01:22:54;;;;;;;0.00;0.00;;;;;;;;;;5076439;28;20020;-79
2022/02/06 01:25:30;;;;;;;1.05;0.95;;;;;;;;;;5059773;28;20120;-79
2022/02/06 01:28:01;;;;;;;0.00;0.00;;;;;;;;;;5079471;28;20357;-77
2022/02/06 01:30:47;;;;;;;10.30;1.40;;;;;;;;;;5079666;28;20551;-78
2022/02/06 01:33:30;;;;;;;0.10;0.10;;;;;;;;;;5090735;28;20034;-77
2022/02/06 01:36:08;;;;;;;0.25;0.20;;;;;;;;;;5070510;28;20447;-78
2022/02/06 01:41:18;;;;;;;0.20;0.20;;;;;;;;;;5078540;28;20039;-77
2022/02/06 01:43:50;;;;;;;0.22;0.22;;;;;;;;;;5080020;28;20484;-78
2022/02/06 01:46:37;;;;;;;0.10;0.10;;;;;;;;;;5080473;28;20037;-77
2022/02/06 01:57:25;;;;;;;0.10;0.10;;;;;;;;;;5068067;28;20109;-78
2022/02/06 02:03:15;;;;;;;9.90;1.45;;;;;;;;;;5071179;28;20174;-79
2022/02/06 02:06:30;;;;;;;0.47;0.47;;;;;;;;;;5075852;28;20094;-79
2022/02/06 02:19:28;;;;;;;0.17;0.17;;;;;;;;;;5068091;28;20036;-80
2022/02/06 02:46:05;;;;;;;0.00;0.00;;;;;;;;;;5020131;28;20820;-82
2022/02/06 02:48:18;;;;;;;0.28;0.28;;;;;;;;;;5012189;28;20117;-82
2022/02/06 02:50:50;;;;;;;0.20;0.20;;;;;;;;;;5004562;28;20033;-81
2022/02/06 02:55:55;;;;;;;0.10;0.10;;;;;;;;;;5010565;28;20036;-80
2022/02/06 03:01:14;;;;;;;0.20;0.20;;;;;;;;;;5009226;28;20049;-79
2022/02/06 03:03:41;;;;;;;0.57;0.57;;;;;;;;;;5005567;28;20053;-78
2022/02/06 03:06:08;;;;;;;6.20;0.65;;;;;;;;;;5067512;28;20423;-79
2022/02/06 03:08:36;;;;;;;2.63;0.38;;;;;;;;;;5053383;28;20031;-79
2022/02/06 03:11:06;;;;;;;0.47;0.47;;;;;;;;;;5069445;28;20036;-80
2022/02/06 03:18:45;;;;;;;0.00;0.00;;;;;;;;;;5078811;28;20848;-81
2022/02/06 03:21:18;;;;;;;0.10;0.10;;;;;;;;;;5081035;28;20032;-80
2022/02/06 03:23:50;;;;;;;0.00;0.00;;;;;;;;;;5067049;28;20024;-80
2022/02/06 03:26:16;;;;;;;0.20;0.20;;;;;;;;;;5070587;28;20032;-81
2022/02/06 03:28:42;;;;;;;0.35;0.35;;;;;;;;;;5073060;28;20035;-80
2022/02/06 03:31:08;;;;;;;0.10;0.10;;;;;;;;;;5079571;28;20411;-80
2022/02/06 03:33:34;;;;;;;0.38;0.38;;;;;;;;;;5071405;28;20028;-80
2022/02/06 03:36:00;;;;;;;0.70;0.30;;;;;;;;;;5081696;28;20028;-80
2022/02/06 03:38:26;;;;;;;0.35;0.30;;;;;;;;;;5072172;28;20024;-81
2022/02/06 03:40:58;;;;;;;0.10;0.10;;;;;;;;;;5068118;28;20036;-80
2022/02/06 03:44:19;;;;;;;0.10;0.10;;;;;;;;;;5074396;28;20143;-81
2022/02/06 03:46:21;;;;;;;0.35;0.35;;;;;;;;;;5072446;28;20411;-80
2022/02/06 03:49:12;;;;;;;0.15;0.15;;;;;;;;;;5057615;28;20055;-80
2022/02/06 03:51:35;;;;;;;0.10;0.10;;;;;;;;;;5080239;28;20424;-80
2022/02/06 03:54:02;;;;;;;0.20;0.20;;;;;;;;;;5080155;28;20572;-80
2022/02/06 03:56:30;;;;;;;1.83;1.67;;;;;;;;;;5049927;28;20093;-80
2022/02/06 03:58:57;;;;;;;0.10;0.10;;;;;;;;;;5071996;28;20487;-80
2022/02/06 04:01:23;;;;;;;1.95;1.65;;;;;;;;;;5059260;28;20016;-81
2022/02/06 04:03:49;;;;;;;0.00;0.00;;;;;;;;;;5063801;28;20051;-81
2022/02/06 04:06:15;;;;;;;0.35;0.35;;;;;;;;;;5062320;28;20032;-79
2022/02/06 04:08:42;;;;;;;0.00;0.00;;;;;;;;;;5078502;28;20608;-80
2022/02/06 04:11:14;;;;;;;0.13;0.13;;;;;;;;;;5052356;28;20029;-80
2022/02/06 04:14:26;;;;;;;0.30;0.30;;;;;;;;;;5069264;28;20028;-81
2022/02/06 04:16:39;;;;;;;0.30;0.30;;;;;;;;;;5070014;28;20451;-81
2022/02/06 04:19:15;;;;;;;0.30;0.30;;;;;;;;;;5066375;28;20028;-80
2022/02/06 04:21:41;;;;;;;0.10;0.10;;;;;;;;;;5066159;28;20054;-81
2022/02/06 04:24:07;;;;;;;0.20;0.20;;;;;;;;;;5080021;28;20546;-81
2022/02/06 04:26:33;;;;;;;0.10;0.10;;;;;;;;;;5077510;28;20114;-81
2022/02/06 04:28:59;;;;;;;0.30;0.30;;;;;;;;;;5077696;28;20043;-82
2022/02/06 04:31:25;;;;;;;0.35;0.35;;;;;;;;;;5077612;28;20036;-81
2022/02/06 04:33:52;;;;;;;3.00;0.63;;;;;;;;;;5080685;28;20483;-81
2022/02/06 04:36:21;;;;;;;0.20;0.20;;;;;;;;;;5070239;28;20504;-81
2022/02/06 04:44:18;;;;;;;0.20;0.20;;;;;;;;;;5068089;28;20040;-80
2022/02/06 05:19:51;;;;;;;0.03;0.03;;;;;;;;;;5022831;28;20104;-81
2022/02/06 05:29:27;;;;;;;0.20;0.20;;;;;;;;;;5022384;28;20033;-80
2022/02/06 05:32:14;;;;;;;0.55;0.55;;;;;;;;;;5004641;28;20033;-80
2022/02/06 05:34:40;;;;;;;0.10;0.10;;;;;;;;;;5017121;28;20048;-82
2022/02/06 05:37:06;;;;;;;0.30;0.30;;;;;;;;;;5006792;28;20578;-82
2022/02/06 05:39:32;;;;;;;2.53;0.45;;;;;;;;;;5005376;28;20533;-82
2022/02/06 05:41:58;;;;;;;0.10;0.10;;;;;;;;;;5005573;28;20044;-82
2022/02/06 05:44:24;;;;;;;1.15;0.80;;;;;;;;;;5003663;28;20204;-82
2022/02/06 05:46:50;;;;;;;1.63;1.50;;;;;;;;;;5004891;28;20076;-83
2022/02/06 05:49:16;;;;;;;0.20;0.20;;;;;;;;;;5051884;28;20053;-82
2022/02/06 05:51:44;;;;;;;0.10;0.10;;;;;;;;;;5058078;28;20083;-82
2022/02/06 05:54:10;;;;;;;0.10;0.10;;;;;;;;;;5075647;28;20052;-83
2022/02/06 05:56:36;;;;;;;0.43;0.38;;;;;;;;;;5083703;28;20158;-81
2022/02/06 05:59:03;;;;;;;0.10;0.10;;;;;;;;;;5061411;28;20027;-82
2022/02/06 06:01:29;;;;;;;0.45;0.45;;;;;;;;;;5080543;28;20293;-81
2022/02/06 06:03:55;;;;;;;0.47;0.47;;;;;;;;;;5065606;28;20487;-82
2022/02/06 06:06:22;;;;;;;0.70;0.70;;;;;;;;;;5064622;28;20055;-82
2022/02/06 06:08:48;;;;;;;1.48;1.30;;;;;;;;;;5081256;28;20028;-81
2022/02/06 06:11:14;;;;;;;0.20;0.20;;;;;;;;;;5059702;28;20032;-81
2022/02/06 06:13:40;;;;;;;0.10;0.10;;;;;;;;;;5063142;28;20058;-84
2022/02/06 06:16:08;;;;;;;0.00;0.00;;;;;;;;;;5081706;28;20306;-80
2022/02/06 06:18:34;;;;;;;0.10;0.10;;;;;;;;;;5064933;28;20026;-79
2022/02/06 06:21:01;;;;;;;0.10;0.10;;;;;;;;;;5081914;28;20032;-80
2022/02/06 06:23:28;;;;;;;0.20;0.20;;;;;;;;;;5051150;28;20452;-80
2022/02/06 06:25:54;;;;;;;0.68;0.28;;;;;;;;;;5073269;28;20208;-80
2022/02/06 06:28:20;;;;;;;0.10;0.10;;;;;;;;;;5079474;28;20031;-84
2022/02/06 06:30:46;;;;;;;0.00;0.00;;;;;;;;;;5064301;28;20290;-84
2022/02/06 06:33:14;;;;;;;0.10;0.10;;;;;;;;;;5070047;28;20273;-85
2022/02/06 06:35:40;;;;;;;1.25;0.35;;;;;;;;;;5071320;28;20408;-84
2022/02/06 06:38:06;;;;;;;0.00;0.00;;;;;;;;;;5070472;28;20139;-84
2022/02/06 06:40:32;;;;;;;1.75;1.02;;;;;;;;;;5070249;28;20662;-85
2022/02/06 06:42:58;;;;;;;8.18;0.75;;;;;;;;;;5064069;28;20024;-85
2022/02/06 06:45:24;;;;;;;3.80;1.98;;;;;;;;;;5081899;28;20036;-82
2022/02/06 06:47:54;;;;;;;0.10;0.10;;;;;;;;;;5080509;28;20051;-81
2022/02/06 06:50:21;;;;;;;0.05;0.05;;;;;;;;;;5078706;28;20084;-84
2022/02/06 06:52:47;;;;;;;0.10;0.10;;;;;;;;;;5077390;28;20423;-84
2022/02/06 06:55:18;;;;;;;0.10;0.10;;;;;;;;;;5068731;28;20036;-85
2022/02/06 06:57:53;;;;;;;0.00;0.00;;;;;;;;;;5073356;28;20052;-84
2022/02/06 07:00:21;;;;;;;0.03;0.03;;;;;;;;;;5081501;28;20028;-82
2022/02/06 07:02:47;;;;;;;4.18;0.45;;;;;;;;;;5080180;28;20024;-82
2022/02/06 07:05:13;;;;;;;0.10;0.10;;;;;;;;;;5083047;28;20091;-84
2022/02/06 07:07:39;;;;;;;0.63;0.63;;;;;;;;;;5074964;28;20027;-82
2022/02/06 07:10:06;;;;;;;0.35;0.35;;;;;;;;;;5077936;28;20028;-83
2022/02/06 07:12:32;;;;;;;0.15;0.15;;;;;;;;;;5071548;28;20024;-85
2022/02/06 07:15:00;;;;;;;7.73;0.37;;;;;;;;;;5074183;28;20043;-84
2022/02/06 07:17:26;;;;;;;0.13;0.13;;;;;;;;;;5075607;28;20286;-81
2022/02/06 07:19:52;;;;;;;0.00;0.00;;;;;;;;;;5075526;28;20129;-82
2022/02/06 07:22:20;;;;;;;0.00;0.00;;;;;;;;;;5069014;28;20037;-80
2022/02/06 07:24:47;;;;;;;1.17;1.10;;;;;;;;;;5064714;28;20032;-81
2022/02/06 07:27:27;;;;;;;0.10;0.10;;;;;;;;;;5058926;28;20051;-81
2022/02/06 07:29:53;;;;;;;0.10;0.10;;;;;;;;;;5069957;28;20090;-81
2022/02/06 07:32:20;;;;;;;1.97;0.77;;;;;;;;;;5069840;28;20020;-90
2022/02/06 07:34:46;;;;;;;0.00;0.00;;;;;;;;;;5075261;28;20550;-84
2022/02/06 07:37:12;;;;;;;0.00;0.00;;;;;;;;;;5072956;28;20024;-85
2022/02/06 07:39:38;;;;;;;0.10;0.10;;;;;;;;;;5067270;28;20028;-84
2022/02/06 07:42:08;;;;;;;0.30;0.30;;;;;;;;;;5070512;28;20056;-87
2022/02/06 07:44:34;;;;;;;2.13;1.45;;;;;;;;;;5077972;28;20438;-87
2022/02/06 07:47:06;;;;;;;0.20;0.20;;;;;;;;;;5054834;28;20060;-86
2022/02/06 07:49:34;;;;;;;0.10;0.10;;;;;;;;;;5068256;28;20359;-88
2022/02/06 07:52:00;;;;;;;0.10;0.10;;;;;;;;;;5080975;28;20082;-87
2022/02/06 07:54:26;;;;;;;2.07;0.97;;;;;;;;;;5084325;28;20123;-87
2022/02/06 07:56:52;;;;;;;0.10;0.10;;;;;;;;;;5064405;28;20122;-85
2022/02/06 07:59:19;;;;;;;0.10;0.10;;;;;;;;;;5069064;28;20074;-87
2022/02/06 08:01:46;;;;;;;0.00;0.00;;;;;;;;;;5081709;28;20024;-85
2022/02/06 08:04:12;;;;;;;0.10;0.10;;;;;;;;;;5078335;28;20028;-87
2022/02/06 08:06:38;;;;;;;6.30;2.33;;;;;;;;;;5083077;28;20036;-86
2022/02/06 08:09:04;;;;;;;0.10;0.10;;;;;;;;;;5083213;28;20056;-88
2022/02/06 08:11:35;;;;;;;3.85;3.55;;;;;;;;;;5071077;28;20035;-87
2022/02/06 08:14:01;;;;;;;2.00;0.63;;;;;;;;;;5072343;28;20035;-87
2022/02/06 08:16:27;;;;;;;0.28;0.15;;;;;;;;;;5077902;28;20024;-87
2022/02/06 08:18:54;;;;;;;0.00;0.00;;;;;;;;;;5081046;28;20711;-88
2022/02/06 08:21:20;;;;;;;0.10;0.10;;;;;;;;;;5079250;28;20450;-87
2022/02/06 08:23:47;;;;;;;0.10;0.10;;;;;;;;;;5080016;28;20495;-87
2022/02/06 08:26:14;;;;;;;0.30;0.30;;;;;;;;;;5078061;28;20036;-86
2022/02/06 08:28:40;;;;;;;0.30;0.30;;;;;;;;;;5079115;28;20031;-87
2022/02/06 08:31:06;;;;;;;0.10;0.10;;;;;;;;;;5081764;28;20042;-87
2022/02/06 08:33:32;;;;;;;0.10;0.10;;;;;;;;;;5065510;28;20025;-87
2022/02/06 08:35:59;;;;;;;1.13;0.83;;;;;;;;;;5082076;28;20042;-87
2022/02/06 08:38:25;;;;;;;0.10;0.10;;;;;;;;;;5080656;28;20161;-86
2022/02/06 08:40:52;;;;;;;0.22;0.22;;;;;;;;;;5080690;28;20107;-86
2022/02/06 08:43:18;;;;;;;0.13;0.13;;;;;;;;;;5077164;28;20103;-86
2022/02/06 08:45:44;;;;;;;0.10;0.10;;;;;;;;;;5046783;28;20044;-87
2022/02/06 08:48:10;;;;;;;0.30;0.30;;;;;;;;;;5083489;28;20537;-86
2022/02/06 08:50:36;;;;;;;0.65;0.65;;;;;;;;;;5083079;28;20032;-87
2022/02/06 08:53:02;;;;;;;0.50;0.50;;;;;;;;;;5082715;28;20043;-88
2022/02/06 08:55:29;;;;;;;0.25;0.25;;;;;;;;;;5077982;28;20024;-87
2022/02/06 08:57:56;;;;;;;0.38;0.38;;;;;;;;;;5080545;28;20024;-84
2022/02/06 09:00:23;;;;;;;0.10;0.10;;;;;;;;;;5061718;28;20562;-88
2022/02/06 09:02:49;;;;;;;0.45;0.45;;;;;;;;;;5069640;28;20107;-92
2022/02/06 09:05:16;;;;;;;0.35;0.35;;;;;;;;;;5066828;28;20536;-93
2022/02/06 09:07:43;;;;;;;1.48;1.00;;;;;;;;;;5083404;28;20021;-92
2022/02/06 09:10:14;;;;;;;0.10;0.10;;;;;;;;;;5062348;28;20081;-93
2022/02/06 09:12:51;;;;;;;0.28;0.28;;;;;;;;;;5074556;28;20031;-91
2022/02/06 09:15:18;;;;;;;6.28;2.40;;;;;;;;;;5068664;28;20021;-90
2022/02/06 09:17:44;;;;;;;0.20;0.20;;;;;;;;;;5054134;28;20032;-91
2022/02/06 09:20:12;;;;;;;0.20;0.20;;;;;;;;;;5059249;28;20032;-89
2022/02/06 09:22:40;;;;;;;1.20;1.10;;;;;;;;;;5070209;28;20500;-85
2022/02/06 09:25:06;;;;;;;0.00;0.00;;;;;;;;;;5066225;28;20028;-90
2022/02/06 09:27:35;;;;;;;0.25;0.17;;;;;;;;;;5060590;28;20029;-89
2022/02/06 09:30:02;;;;;;;0.85;0.85;;;;;;;;;;5070279;28;20094;-88
2022/02/06 09:37:20;;;;;;;0.88;0.30;;;;;;;;;;5068801;28;20033;-89
2022/02/06 09:39:46;;;;;;;1.27;1.17;;;;;;;;;;5065965;28;20055;-90
2022/02/06 09:42:12;;;;;;;0.60;0.43;;;;;;;;;;5069313;28;20024;-90
2022/02/06 09:44:40;;;;;;;1.33;1.25;;;;;;;;;;5066531;28;20115;-88
2022/02/06 09:47:06;;;;;;;0.10;0.10;;;;;;;;;;5066864;28;20025;-88
2022/02/06 09:49:33;;;;;;;0.10;0.10;;;;;;;;;;5069535;28;20032;-89
2022/02/06 09:51:59;;;;;;;0.55;0.55;;;;;;;;;;5077813;28;20927;-90
2022/02/06 09:54:25;;;;;;;1.83;1.20;;;;;;;;;;5068029;28;20056;-87
2022/02/06 09:56:55;;;;;;;0.20;0.20;;;;;;;;;;5060264;28;20032;-90
2022/02/06 09:59:22;;;;;;;0.85;0.77;;;;;;;;;;5072181;28;20028;-88
2022/02/06 10:01:53;;;;;;;0.10;0.10;;;;;;;;;;5070928;28;20056;-87
2022/02/06 10:04:21;;;;;;;0.80;0.80;;;;;;;;;;5059368;28;20023;-90
2022/02/06 10:06:54;;;;;;;0.35;0.30;;;;;;;;;;5074145;28;20028;-95
2022/02/06 10:09:23;;;;;;;1.20;1.17;;;;;;;;;;5055974;28;20037;-88
2022/02/06 10:11:51;;;;;;;0.25;0.22;;;;;;;;;;5055583;28;20195;-88
2022/02/06 10:14:17;;;;;;;0.08;0.08;;;;;;;;;;5050614;28;20040;-91
2022/02/06 10:16:43;;;;;;;0.13;0.13;;;;;;;;;;5070355;28;20640;-90
2022/02/06 10:19:09;;;;;;;4.88;1.15;;;;;;;;;;5071949;28;20300;-87
2022/02/06 10:21:36;;;;;;;1.40;1.30;;;;;;;;;;5071367;28;21374;-89
2022/02/06 10:24:12;;;;;;;0.00;0.00;;;;;;;;;;5063507;28;20042;-88
2022/02/06 10:31:43;;;;;;;1.00;0.77;;;;;;;;;;5079027;28;20083;-86
2022/02/06 10:34:21;;;;;;;0.15;0.15;;;;;;;;;;5061872;28;20530;-87
2022/02/06 10:36:47;;;;;;;1.88;0.95;;;;;;;;;;5080324;28;20031;-88
2022/02/06 10:39:16;;;;;;;1.20;1.13;;;;;;;;;;5082682;28;20026;-88
2022/02/06 10:41:46;;;;;;;0.55;0.55;;;;;;;;;;5077243;28;20578;-88
2022/02/06 10:44:13;;;;;;;12.27;1.08;;;;;;;;;;5060375;28;20039;-88
2022/02/06 10:47:01;;;;;;;0.40;0.40;;;;;;;;;;5079272;28;20048;-87
2022/02/06 10:49:27;;;;;;;3.83;1.58;;;;;;;;;;5059702;28;20027;-87
2022/02/06 10:52:00;;;;;;;0.73;0.73;;;;;;;;;;5080724;28;20036;-87
2022/02/06 10:54:30;;;;;;;0.20;0.20;;;;;;;;;;5081828;28;20039;-87
2022/02/06 10:56:59;;;;;;;0.30;0.30;;;;;;;;;;5073835;28;20036;-90
2022/02/06 10:59:25;;;;;;;0.93;0.73;;;;;;;;;;5074445;28;20036;-84
2022/02/06 11:01:52;;;;;;;0.20;0.20;;;;;;;;;;5080373;28;20028;-84
2022/02/06 11:04:29;;;;;;;1.10;0.93;;;;;;;;;;5080954;28;20110;-82
2022/02/06 11:07:11;;;;;;;0.55;0.55;;;;;;;;;;5071191;28;20032;-84
2022/02/06 11:09:37;;;;;;;0.40;0.40;;;;;;;;;;5072874;28;20078;-82
2022/02/06 11:12:10;;;;;;;0.30;0.30;;;;;;;;;;5075208;28;20043;-80
2022/02/06 11:14:39;;;;;;;0.30;0.30;;;;;;;;;;5072290;28;20060;-85
2022/02/06 11:17:24;;;;;;;0.10;0.10;;;;;;;;;;5079002;28;20092;-95
2022/02/06 11:20:17;;;;;;;1.40;0.40;;;;;;;;;;5081734;28;20028;-96
2022/02/06 11:22:53;;;;;;;0.20;0.20;;;;;;;;;;5075823;28;20048;-92
2022/02/06 11:25:19;;;;;;;1.50;0.93;;;;;;;;;;5078145;28;20163;-85
2022/02/06 11:27:46;;;;;;;0.47;0.47;;;;;;;;;;5058089;28;20119;-92
2022/02/06 11:30:12;;;;;;;11.45;1.40;;;;;;;;;;5069443;28;20123;-91
2022/02/06 11:32:40;;;;;;;0.67;0.67;;;;;;;;;;5065133;28;20036;-87
2022/02/06 11:35:15;;;;;;;0.47;0.47;;;;;;;;;;5072192;28;20349;-87
2022/02/06 11:46:25;;;;;;;1.23;1.23;;;;;;;;;;5071850;28;20125;-86
2022/02/06 11:49:11;;;;;;;0.10;0.10;;;;;;;;;;5050658;28;20181;-86
2022/02/06 11:51:40;;;;;;;0.10;0.10;;;;;;;;;;5070707;28;20453;-84
2022/02/06 11:54:24;;;;;;;0.05;0.05;;;;;;;;;;5048332;28;20078;-79
2022/02/06 11:56:51;;;;;;;0.68;0.68;;;;;;;;;;5066178;28;20039;-81
2022/02/06 11:59:17;;;;;;;0.10;0.10;;;;;;;;;;5073753;28;20036;-81
2022/02/06 12:01:44;;;;;;;0.10;0.10;;;;;;;;;;5068305;28;20031;-81
2022/02/06 12:04:28;;;;;;;0.10;0.10;;;;;;;;;;5048681;28;20119;-81
2022/02/06 12:06:56;;;;;;;0.60;0.60;;;;;;;;;;5071417;28;20198;-81
2022/02/06 12:09:25;;;;;;;3.33;0.82;;;;;;;;;;5067303;28;20024;-81
2022/02/06 12:12:06;;;;;;;1.60;0.95;;;;;;;;;;5050586;28;20028;-81
2022/02/06 12:14:38;;;;;;;0.68;0.68;;;;;;;;;;5069773;28;20797;-81
2022/02/06 12:20:03;;;;;;;2.45;1.00;;;;;;;;;;5069689;28;20060;-81
2022/02/06 12:22:29;;;;;;;0.52;0.38;;;;;;;;;;5067749;28;20594;-80
2022/02/06 12:25:14;;;;;;;0.20;0.20;;;;;;;;;;5076588;28;20028;-81
2022/02/06 12:27:40;;;;;;;0.75;0.75;;;;;;;;;;5074764;28;20287;-81
2022/02/06 12:30:08;;;;;;;0.25;0.25;;;;;;;;;;5067976;28;20040;-81
2022/02/06 12:32:34;;;;;;;0.20;0.20;;;;;;;;;;5065069;28;20031;-81
2022/02/06 12:37:46;;;;;;;0.65;0.65;;;;;;;;;;5065414;28;20039;-81
2022/02/06 12:40:16;;;;;;;0.30;0.30;;;;;;;;;;5072256;28;20039;-81
2022/02/06 12:42:47;;;;;;;0.52;0.52;;;;;;;;;;5053368;28;20038;-81
2022/02/06 12:45:14;;;;;;;0.65;0.65;;;;;;;;;;5073522;28;20050;-82
2022/02/06 12:47:43;;;;;;;0.60;0.60;;;;;;;;;;5072182;28;20085;-80
2022/02/06 12:50:13;;;;;;;1.48;0.80;;;;;;;;;;5069079;28;20152;-80
2022/02/06 12:52:40;;;;;;;3.33;0.93;;;;;;;;;;5050294;28;20841;-79
2022/02/06 12:55:06;;;;;;;2.00;1.52;;;;;;;;;;5066633;28;20531;-80
2022/02/06 12:57:41;;;;;;;10.98;7.72;;;;;;;;;;5075116;28;20069;-80
2022/02/06 13:00:07;;;;;;;2.60;2.20;;;;;;;;;;5073958;28;20044;-79
2022/02/06 13:02:35;;;;;;;1.95;1.73;;;;;;;;;;5054181;28;20036;-80
2022/02/06 13:05:03;;;;;;;4.40;1.60;;;;;;;;;;5067100;28;20061;-80
2022/02/06 13:07:30;;;;;;;2.42;1.75;;;;;;;;;;5073062;28;20024;-80
2022/02/06 13:10:03;;;;;;;10.35;2.65;;;;;;;;;;5071259;28;20035;-80
2022/02/06 13:12:51;;;;;;;0.88;0.82;;;;;;;;;;5073789;28;20115;-80
2022/02/06 13:15:43;;;;;;;15.90;1.15;;;;;;;;;;5060941;28;20047;-80
2022/02/06 13:18:35;;;;;;;4.28;1.85;;;;;;;;;;5077800;28;20032;-80
2022/02/06 13:23:47;;;;;;;0.30;0.30;;;;;;;;;;5069564;28;20039;-80
2022/02/06 13:26:27;;;;;;;0.90;0.90;;;;;;;;;;5070316;28;20056;-79
2022/02/06 13:29:06;;;;;;;8.93;4.55;;;;;;;;;;5065983;28;20020;-80
2022/02/06 13:31:48;;;;;;;9.05;1.70;;;;;;;;;;5071419;28;20082;-80
2022/02/06 13:36:51;;;;;;;1.17;0.73;;;;;;;;;;5069767;28;20551;-80
2022/02/06 13:39:26;;;;;;;4.30;2.28;;;;;;;;;;5075803;28;20035;-80
2022/02/06 13:41:52;;;;;;;5.18;1.85;;;;;;;;;;5082243;28;20157;-79
2022/02/06 13:44:22;;;;;;;1.97;1.83;;;;;;;;;;5079730;28;20103;-79
2022/02/06 13:46:48;;;;;;;2.58;1.20;;;;;;;;;;5079770;28;20169;-79
2022/02/06 13:49:16;;;;;;;0.80;0.80;;;;;;;;;;5082686;28;20025;-79
2022/02/06 13:51:50;;;;;;;6.40;2.72;;;;;;;;;;5061466;28;20028;-79
2022/02/06 13:54:17;;;;;;;2.03;1.38;;;;;;;;;;5080079;28;20146;-80
2022/02/06 13:56:45;;;;;;;7.53;2.78;;;;;;;;;;5069733;28;20032;-80
2022/02/06 13:59:14;;;;;;;4.10;1.83;;;;;;;;;;5068689;28;20029;-80
2022/02/06 14:01:47;;;;;;;1.45;1.38;;;;;;;;;;5068644;28;20036;-79
2022/02/06 14:04:21;;;;;;;3.92;1.63;;;;;;;;;;5073333;28;20670;-80
2022/02/06 14:07:00;;;;;;;0.17;0.17;;;;;;;;;;5070008;28;20028;-79
2022/02/06 14:09:30;;;;;;;1.38;1.27;;;;;;;;;;5067045;28;20028;-80
2022/02/06 14:12:04;;;;;;;3.55;2.08;;;;;;;;;;5071312;28;20025;-80
2022/02/06 14:14:31;;;;;;;1.20;0.93;;;;;;;;;;5069390;28;20021;-80
2022/02/06 14:16:58;;;;;;;0.20;0.20;;;;;;;;;;5071019;28;20143;-80
2022/02/06 14:19:35;;;;;;;2.30;1.25;;;;;;;;;;5067683;28;20105;-80
2022/02/06 14:22:01;;;;;;;1.73;0.93;;;;;;;;;;5071249;28;20412;-80
2022/02/06 14:24:27;;;;;;;0.43;0.43;;;;;;;;;;5067640;28;20051;-80
2022/02/06 14:27:06;;;;;;;1.13;1.13;;;;;;;;;;5069466;28;20024;-80
2022/02/06 14:29:33;;;;;;;0.57;0.57;;;;;;;;;;5071196;28;20040;-80
2022/02/06 14:32:18;;;;;;;5.55;1.73;;;;;;;;;;5072581;28;20033;-80
2022/02/06 14:35:03;;;;;;;0.90;0.90;;;;;;;;;;5050018;28;20036;-79
2022/02/06 14:37:42;;;;;;;0.10;0.10;;;;;;;;;;5068139;28;20514;-79
2022/02/06 14:40:22;;;;;;;4.20;2.80;;;;;;;;;;5070451;28;20028;-80
2022/02/06 14:42:52;;;;;;;0.90;0.43;;;;;;;;;;5063248;28;20025;-80
2022/02/06 14:45:18;;;;;;;0.20;0.20;;;;;;;;;;5054883;28;20045;-80
2022/02/06 14:47:44;;;;;;;0.43;0.43;;;;;;;;;;5079049;28;20028;-80
2022/02/06 14:50:14;;;;;;;0.20;0.20;;;;;;;;;;5078106;28;20582;-79
2022/02/06 14:52:40;;;;;;;1.08;0.50;;;;;;;;;;5063263;28;20056;-79
2022/02/06 14:55:06;;;;;;;0.93;0.93;;;;;;;;;;5079314;28;20147;-80
2022/02/06 14:57:33;;;;;;;0.73;0.43;;;;;;;;;;5079997;28;20024;-79
2022/02/06 15:00:00;;;;;;;0.10;0.10;;;;;;;;;;5075526;28;20028;-80
2022/02/06 15:02:26;;;;;;;0.10;0.10;;;;;;;;;;5060324;28;20028;-79
2022/02/06 15:04:52;;;;;;;0.30;0.30;;;;;;;;;;5072893;28;20666;-79
2022/02/06 15:07:18;;;;;;;0.20;0.20;;;;;;;;;;5071581;28;20035;-80
2022/02/06 15:09:45;;;;;;;0.80;0.28;;;;;;;;;;5065526;28;20060;-80
2022/02/06 15:12:11;;;;;;;0.25;0.17;;;;;;;;;;5069265;28;20514;-80
2022/02/06 15:14:37;;;;;;;0.13;0.13;;;;;;;;;;5073209;28;20032;-80
2022/02/06 15:17:03;;;;;;;0.45;0.40;;;;;;;;;;5078039;28;20722;-80
2022/02/06 15:19:32;;;;;;;0.63;0.63;;;;;;;;;;5079817;28;20812;-79
2022/02/06 15:21:58;;;;;;;0.30;0.30;;;;;;;;;;5073602;28;20668;-79
2022/02/06 15:24:25;;;;;;;0.22;0.22;;;;;;;;;;5065188;28;20088;-79
2022/02/06 15:26:52;;;;;;;0.20;0.20;;;;;;;;;;5063934;28;20134;-79
2022/02/06 15:29:18;;;;;;;;;;;;;;;;;;5069583;28;20074;-79
2022/02/06 15:31:44;;;;;;;3.50;1.30;;;;;;;;;;5077362;28;19922;-79
2022/02/06 15:34:10;;;;;;;0.10;0.10;;;;;;;;;;5077116;28;20809;-79
2022/02/06 15:36:39;;;;;;;0.43;0.30;;;;;;;;;;5077737;28;20029;-79
2022/02/06 15:39:14;;;;;;;3.40;0.93;;;;;;;;;;5070430;28;20023;-80
2022/02/06 15:41:42;;;;;;;0.40;0.40;;;;;;;;;;5072097;28;20118;-79
2022/02/06 15:44:08;;;;;;;1.25;0.60;;;;;;;;;;5067679;28;20115;-80
2022/02/06 15:46:34;;;;;;;1.08;1.05;;;;;;;;;;5069575;28;20077;-80
2022/02/06 15:49:00;;;;;;;0.22;0.22;;;;;;;;;;5064438;28;20025;-79
2022/02/06 15:51:26;;;;;;;0.82;0.52;;;;;;;;;;5079596;28;20804;-79
2022/02/06 15:53:52;;;;;;;0.17;0.17;;;;;;;;;;5072365;28;20052;-80
2022/02/06 15:56:18;;;;;;;2.08;1.38;;;;;;;;;;5065149;28;20024;-80
2022/02/06 15:58:44;;;;;;;1.13;1.05;;;;;;;;;;5064766;28;20039;-80
2022/02/06 16:01:10;;;;;;;0.20;0.20;;;;;;;;;;5068430;28;20688;-79
2022/02/06 16:03:36;;;;;;;2.38;0.82;;;;;;;;;;5065384;28;20503;-79
2022/02/06 16:06:02;;;;;;;0.43;0.43;;;;;;;;;;5064902;28;20035;-79
2022/02/06 16:08:28;;;;;;;0.93;0.90;;;;;;;;;;5071080;28;20616;-79
2022/02/06 16:10:55;;;;;;;0.35;0.35;;;;;;;;;;5074023;28;20036;-79
2022/02/06 16:13:21;;;;;;;3.22;1.35;;;;;;;;;;5070749;28;20438;-79
2022/02/06 16:15:47;;;;;;;0.55;0.55;;;;;;;;;;5067335;28;20032;-79
2022/02/06 16:18:13;;;;;;;0.10;0.10;;;;;;;;;;5065370;28;20016;-79
2022/02/06 16:20:39;;;;;;;0.27;0.27;;;;;;;;;;5070331;28;20033;-79
2022/02/06 16:23:05;;;;;;;1.70;1.60;;;;;;;;;;5067902;28;20032;-79
2022/02/06 16:25:31;;;;;;;3.05;1.38;;;;;;;;;;5068769;28;20488;-79
2022/02/06 16:27:57;;;;;;;1.42;1.08;;;;;;;;;;5066963;28;20103;-79
2022/02/06 16:30:23;;;;;;;0.30;0.30;;;;;;;;;;5072096;28;20407;-79
2022/02/06 16:32:50;;;;;;;0.63;0.63;;;;;;;;;;5066070;28;20020;-78
2022/02/06 16:35:16;;;;;;;0.10;0.10;;;;;;;;;;5068623;28;20036;-79
2022/02/06 16:37:42;;;;;;;0.23;0.23;;;;;;;;;;5075585;28;20135;-79
2022/02/06 16:40:09;;;;;;;0.40;0.30;;;;;;;;;;5080380;28;20543;-78
2022/02/06 16:42:35;;;;;;;0.47;0.40;;;;;;;;;;5069915;28;20111;-78
2022/02/06 16:45:01;;;;;;;0.47;0.47;;;;;;;;;;5065712;28;20118;-78
2022/02/06 16:47:27;;;;;;;0.37;0.37;;;;;;;;;;5063115;28;20385;-78
2022/02/06 16:49:53;;;;;;;0.10;0.10;;;;;;;;;;5066678;28;20060;-78
2022/02/06 16:52:19;;;;;;;0.30;0.30;;;;;;;;;;5061848;28;21115;-79
2022/02/06 16:54:45;;;;;;;0.23;0.23;;;;;;;;;;5076311;28;20028;-77
2022/02/06 16:57:11;;;;;;;0.10;0.10;;;;;;;;;;5072651;28;20403;-78
2022/02/06 16:59:37;;;;;;;4.25;0.68;;;;;;;;;;5065957;28;20782;-78
2022/02/06 17:02:04;;;;;;;0.40;0.40;;;;;;;;;;5070274;28;20043;-78
2022/02/06 17:04:30;;;;;;;0.20;0.20;;;;;;;;;;5066702;28;20480;-77
2022/02/06 17:06:56;;;;;;;0.32;0.32;;;;;;;;;;5050108;28;20408;-79
2022/02/06 17:09:22;;;;;;;0.10;0.10;;;;;;;;;;5078506;28;20031;-82
2022/02/06 17:11:50;;;;;;;0.53;0.53;;;;;;;;;;5064956;28;20059;-76
2022/02/06 17:14:17;;;;;;;0.73;0.65;;;;;;;;;;5073829;28;20050;-77
2022/02/06 17:16:43;;;;;;;0.10;0.10;;;;;;;;;;5073540;28;20424;-77
2022/02/06 17:19:10;;;;;;;0.98;0.93;;;;;;;;;;5078055;28;20020;-80